createdAt,value
2017-08-26T00:02:30.671Z,16.70
2017-08-26T00:04:58.418Z,16.84
2017-08-26T00:07:26.234Z,16.72
2017-08-26T00:19:03.038Z,16.60
2017-08-26T00:21:30.774Z,16.67
2017-08-26T00:23:59.365Z,16.62
2017-08-26T00:26:27.158Z,16.66
2017-08-26T00:28:54.879Z,16.66
2017-08-26T00:31:22.783Z,16.55
2017-08-26T00:33:50.544Z,16.69
2017-08-26T00:36:18.243Z,16.55
2017-08-26T00:38:45.970Z,16.41
2017-08-26T00:41:13.669Z,16.43
2017-08-26T00:43:41.474Z,16.39
2017-08-26T00:46:09.460Z,16.42
2017-08-26T00:48:37.240Z,16.43
2017-08-26T00:51:05.021Z,16.37
2017-08-26T00:53:32.773Z,16.31
2017-08-26T00:56:00.613Z,16.41
2017-08-26T00:58:29.183Z,16.31
2017-08-26T01:00:57.008Z,16.32
2017-08-26T01:03:24.793Z,16.39
2017-08-26T01:05:52.567Z,16.22
2017-08-26T01:08:20.353Z,16.07
2017-08-26T01:10:48.134Z,16.21
2017-08-26T01:13:15.843Z,16.27
2017-08-26T01:15:43.636Z,16.15
2017-08-26T01:18:11.384Z,16.14
2017-08-26T01:20:39.869Z,16.18
2017-08-26T01:23:07.658Z,16.28
2017-08-26T01:25:35.556Z,16.25
2017-08-26T01:28:03.437Z,16.12
2017-08-26T01:30:31.516Z,16.14
2017-08-26T01:32:59.315Z,16.13
2017-08-26T01:35:27.076Z,16.01
2017-08-26T01:37:54.823Z,16.06
2017-08-26T01:40:22.577Z,16.09
2017-08-26T01:42:50.357Z,15.93
2017-08-26T01:45:18.134Z,16.03
2017-08-26T01:47:45.828Z,16.02
2017-08-26T01:50:13.601Z,15.98
2017-08-26T01:52:41.305Z,15.89
2017-08-26T01:55:09.071Z,15.91
2017-08-26T01:57:36.783Z,15.82
2017-08-26T02:00:04.574Z,15.83
2017-08-26T02:02:32.284Z,15.80
2017-08-26T02:04:59.980Z,15.70
2017-08-26T02:07:27.705Z,15.63
2017-08-26T02:09:55.498Z,15.35
2017-08-26T02:12:23.240Z,15.63
2017-08-26T02:14:50.951Z,15.62
2017-08-26T02:17:18.900Z,15.57
2017-08-26T02:19:47.653Z,15.59
2017-08-26T02:22:15.371Z,15.57
2017-08-26T02:24:43.130Z,15.56
2017-08-26T02:27:10.853Z,15.49
2017-08-26T02:29:38.620Z,15.49
2017-08-26T02:32:06.337Z,15.47
2017-08-26T02:34:34.073Z,15.37
2017-08-26T02:37:01.846Z,15.46
2017-08-26T02:39:30.478Z,15.45
2017-08-26T02:41:58.183Z,15.39
2017-08-26T02:44:25.981Z,15.49
2017-08-26T02:46:53.730Z,15.36
2017-08-26T02:49:21.437Z,15.30
2017-08-26T02:51:49.155Z,15.33
2017-08-26T02:54:17.940Z,15.34
2017-08-26T02:56:45.701Z,15.38
2017-08-26T02:59:14.525Z,15.24
2017-08-26T03:01:42.297Z,15.28
2017-08-26T03:04:10.016Z,15.19
2017-08-26T03:06:37.812Z,15.16
2017-08-26T03:09:05.506Z,15.17
2017-08-26T03:11:34.441Z,15.12
2017-08-26T03:14:02.159Z,15.15
2017-08-26T03:16:29.911Z,15.14
2017-08-26T03:18:57.599Z,15.07
2017-08-26T03:21:25.317Z,15.10
2017-08-26T03:23:53.025Z,15.05
2017-08-26T03:26:20.777Z,15.00
2017-08-26T03:28:48.514Z,14.78
2017-08-26T03:31:16.215Z,14.82
2017-08-26T03:33:43.966Z,14.85
2017-08-26T03:36:12.136Z,15.02
2017-08-26T03:38:39.847Z,14.93
2017-08-26T03:41:07.578Z,14.95
2017-08-26T03:43:35.344Z,14.98
2017-08-26T03:46:04.083Z,14.81
2017-08-26T03:48:31.846Z,14.83
2017-08-26T03:50:59.538Z,14.88
2017-08-26T03:53:27.278Z,14.86
2017-08-26T03:55:55.015Z,14.79
2017-08-26T03:58:22.723Z,14.83
2017-08-26T04:00:50.478Z,15.02
2017-08-26T04:03:18.178Z,14.94
2017-08-26T04:05:45.914Z,14.71
2017-08-26T04:08:14.063Z,14.59
2017-08-26T04:10:41.756Z,14.68
2017-08-26T04:13:09.508Z,14.54
2017-08-26T04:15:37.286Z,14.60
2017-08-26T04:18:05.615Z,14.71
2017-08-26T04:20:33.297Z,14.57
2017-08-26T04:23:01.044Z,14.67
2017-08-26T04:25:28.846Z,14.70
2017-08-26T04:27:56.636Z,14.68
2017-08-26T04:30:24.322Z,14.82
2017-08-26T04:32:53.060Z,14.90
2017-08-26T04:35:20.871Z,14.92
2017-08-26T04:37:48.618Z,14.66
2017-08-26T04:40:16.343Z,14.70
2017-08-26T04:42:44.112Z,14.84
2017-08-26T04:45:11.860Z,14.90
2017-08-26T04:47:39.630Z,15.01
2017-08-26T04:50:07.402Z,14.99
2017-08-26T04:52:35.870Z,14.99
2017-08-26T04:55:03.574Z,15.06
2017-08-26T04:57:31.382Z,15.10
2017-08-26T04:59:59.142Z,15.18
2017-08-26T05:02:26.864Z,15.33
2017-08-26T05:04:54.582Z,15.26
2017-08-26T05:07:22.320Z,15.23
2017-08-26T05:09:50.024Z,15.24
2017-08-26T05:12:17.736Z,15.29
2017-08-26T05:14:45.465Z,15.85
2017-08-26T05:17:13.214Z,16.48
2017-08-26T05:19:40.998Z,17.47
2017-08-26T05:22:09.308Z,17.44
2017-08-26T05:24:37.102Z,16.98
2017-08-26T05:27:04.823Z,16.64
2017-08-26T05:29:32.576Z,16.47
2017-08-26T05:32:00.293Z,16.52
2017-08-26T05:34:28.037Z,16.51
2017-08-26T05:36:55.991Z,16.66
2017-08-26T05:39:23.776Z,16.68
2017-08-26T05:41:51.709Z,16.83
2017-08-26T05:44:19.476Z,16.93
2017-08-26T05:46:47.211Z,17.06
2017-08-26T05:49:14.990Z,17.09
2017-08-26T05:51:42.692Z,17.13
2017-08-26T05:54:10.400Z,17.41
2017-08-26T05:56:38.821Z,17.57
2017-08-26T05:59:06.528Z,17.75
2017-08-26T06:01:34.324Z,18.00
2017-08-26T06:04:02.964Z,17.71
2017-08-26T06:06:33.793Z,17.99
2017-08-26T06:09:01.490Z,17.94
2017-08-26T06:11:29.271Z,17.79
2017-08-26T06:13:58.459Z,17.57
2017-08-26T06:16:26.311Z,17.58
2017-08-26T06:18:54.092Z,17.85
2017-08-26T06:21:22.509Z,18.32
2017-08-26T06:23:50.292Z,18.66
2017-08-26T06:26:18.022Z,18.78
2017-08-26T06:28:45.812Z,19.06
2017-08-26T06:31:13.560Z,18.86
2017-08-26T06:33:41.328Z,19.23
2017-08-26T06:36:11.401Z,19.60
2017-08-26T06:38:39.217Z,19.77
2017-08-26T06:41:07.523Z,19.55
2017-08-26T06:43:36.055Z,19.41
2017-08-26T06:46:03.858Z,19.19
2017-08-26T06:48:31.618Z,19.02
2017-08-26T06:50:59.352Z,19.31
2017-08-26T06:53:27.249Z,19.06
2017-08-26T06:55:55.138Z,19.07
2017-08-26T06:58:22.878Z,19.09
2017-08-26T07:00:51.591Z,19.26
2017-08-26T07:03:20.657Z,18.79
2017-08-26T07:05:48.652Z,18.82
2017-08-26T07:08:16.346Z,19.07
2017-08-26T07:10:44.125Z,19.26
2017-08-26T07:13:11.856Z,19.27
2017-08-26T07:15:41.482Z,19.32
2017-08-26T07:18:09.286Z,19.27
2017-08-26T07:20:37.132Z,19.38
2017-08-26T07:23:04.942Z,19.13
2017-08-26T07:25:32.690Z,19.27
2017-08-26T07:28:00.450Z,19.31
2017-08-26T07:30:28.167Z,19.30
2017-08-26T07:32:55.944Z,19.39
2017-08-26T07:35:23.890Z,19.23
2017-08-26T07:37:51.693Z,19.40
2017-08-26T07:40:19.596Z,19.40
2017-08-26T07:42:47.346Z,19.43
2017-08-26T07:45:15.096Z,19.38
2017-08-26T07:47:42.814Z,19.38
2017-08-26T07:50:10.744Z,19.27
2017-08-26T07:52:38.546Z,19.47
2017-08-26T07:55:06.343Z,19.45
2017-08-26T07:57:34.134Z,19.45
2017-08-26T08:00:01.885Z,19.42
2017-08-26T08:02:29.608Z,19.50
2017-08-26T08:04:58.265Z,19.73
2017-08-26T08:07:26.106Z,20.21
2017-08-26T08:09:54.014Z,20.66
2017-08-26T08:12:21.842Z,20.63
2017-08-26T08:14:49.646Z,20.80
2017-08-26T08:17:17.439Z,20.74
2017-08-26T08:19:45.327Z,21.40
2017-08-26T08:22:13.273Z,21.05
2017-08-26T08:24:41.138Z,21.46
2017-08-26T08:27:08.878Z,22.18
2017-08-26T08:29:36.634Z,22.31
2017-08-26T08:32:04.459Z,22.58
2017-08-26T08:34:32.167Z,21.55
2017-08-26T08:37:00.009Z,21.94
2017-08-26T08:39:27.868Z,21.75
2017-08-26T08:41:55.651Z,21.56
2017-08-26T08:44:23.414Z,21.39
2017-08-26T08:46:51.138Z,21.74
2017-08-26T08:49:18.900Z,22.24
2017-08-26T08:51:46.760Z,22.93
2017-08-26T08:54:15.642Z,22.59
2017-08-26T08:56:43.432Z,22.60
2017-08-26T08:59:11.230Z,22.36
2017-08-26T09:01:38.998Z,22.82
2017-08-26T09:04:06.757Z,23.04
2017-08-26T09:06:34.473Z,22.58
2017-08-26T09:09:02.252Z,22.68
2017-08-26T09:11:30.704Z,22.83
2017-08-26T09:13:58.442Z,23.02
2017-08-26T09:16:26.159Z,23.38
2017-08-26T09:18:53.994Z,23.45
2017-08-26T09:21:21.749Z,23.61
2017-08-26T09:23:49.506Z,24.02
2017-08-26T09:26:17.317Z,23.99
2017-08-26T09:28:46.270Z,24.33
2017-08-26T09:31:14.053Z,23.98
2017-08-26T09:33:41.939Z,24.06
2017-08-26T09:36:09.793Z,24.09
2017-08-26T09:38:37.555Z,24.48
2017-08-26T09:41:14.189Z,24.61
2017-08-26T09:43:41.957Z,24.12
2017-08-26T09:46:09.725Z,24.66
2017-08-26T09:48:37.421Z,24.72
2017-08-26T09:51:05.255Z,25.39
2017-08-26T09:53:32.964Z,25.75
2017-08-26T09:56:00.724Z,25.50
2017-08-26T09:58:29.286Z,24.75
2017-08-26T10:00:57.101Z,24.86
2017-08-26T10:03:24.941Z,24.95
2017-08-26T10:05:52.656Z,25.52
2017-08-26T10:08:20.425Z,25.63
2017-08-26T10:10:48.215Z,25.90
2017-08-26T10:13:16.002Z,26.08
2017-08-26T10:15:43.791Z,25.80
2017-08-26T10:18:11.557Z,26.14
2017-08-26T10:20:39.333Z,26.26
2017-08-26T10:23:07.094Z,26.50
2017-08-26T10:25:34.806Z,26.55
2017-08-26T10:28:02.593Z,26.85
2017-08-26T10:30:30.426Z,26.78
2017-08-26T10:32:58.193Z,27.17
2017-08-26T10:35:26.096Z,26.60
2017-08-26T10:37:53.875Z,26.59
2017-08-26T10:40:21.749Z,26.56
2017-08-26T10:42:49.618Z,26.88
2017-08-26T10:45:17.364Z,26.76
2017-08-26T10:47:45.226Z,26.96
2017-08-26T10:50:13.002Z,26.90
2017-08-26T10:52:40.799Z,27.13
2017-08-26T10:55:08.622Z,27.38
2017-08-26T10:57:36.415Z,27.73
2017-08-26T11:00:04.262Z,27.69
2017-08-26T11:02:31.966Z,27.58
2017-08-26T11:04:59.741Z,27.90
2017-08-26T11:07:27.446Z,28.13
2017-08-26T11:09:55.211Z,27.81
2017-08-26T11:12:22.966Z,27.73
2017-08-26T11:14:50.720Z,28.00
2017-08-26T11:17:18.510Z,28.49
2017-08-26T11:19:46.268Z,28.34
2017-08-26T11:22:14.108Z,27.74
2017-08-26T11:24:41.809Z,28.15
2017-08-26T11:27:09.583Z,27.90
2017-08-26T11:29:37.319Z,28.39
2017-08-26T11:32:05.094Z,28.84
2017-08-26T11:34:32.862Z,29.11
2017-08-26T11:37:01.634Z,28.48
2017-08-26T11:39:29.553Z,28.64
2017-08-26T11:41:57.366Z,28.82
2017-08-26T11:44:25.116Z,28.96
2017-08-26T11:46:52.817Z,28.91
2017-08-26T11:49:20.581Z,28.86
2017-08-26T11:51:48.276Z,29.38
2017-08-26T11:54:16.016Z,29.07
2017-08-26T11:56:43.830Z,28.74
2017-08-26T11:59:11.555Z,29.08
2017-08-26T12:01:39.297Z,29.43
2017-08-26T12:04:07.056Z,29.67
2017-08-26T12:06:34.833Z,29.86
2017-08-26T12:09:02.756Z,29.76
2017-08-26T12:11:30.594Z,29.31
2017-08-26T12:13:58.389Z,29.24
2017-08-26T12:16:26.238Z,29.70
2017-08-26T12:18:53.996Z,29.65
2017-08-26T12:21:21.954Z,29.71
2017-08-26T12:23:49.660Z,30.05
2017-08-26T12:26:17.438Z,29.91
2017-08-26T12:28:46.433Z,29.47
2017-08-26T12:31:14.177Z,29.41
2017-08-26T12:33:41.957Z,29.33
2017-08-26T12:36:09.785Z,29.56
2017-08-26T12:38:37.594Z,29.50
2017-08-26T12:41:05.549Z,29.38
2017-08-26T12:43:33.661Z,29.57
2017-08-26T12:46:01.531Z,29.91
2017-08-26T12:48:29.806Z,29.87
2017-08-26T12:50:57.526Z,29.95
2017-08-26T12:53:25.346Z,29.51
2017-08-26T12:55:53.231Z,29.87
2017-08-26T12:58:21.077Z,29.95
2017-08-26T13:00:48.836Z,29.67
2017-08-26T13:03:16.602Z,29.78
2017-08-26T13:05:44.402Z,29.82
2017-08-26T13:08:12.212Z,29.87
2017-08-26T13:10:40.012Z,29.79
2017-08-26T13:13:07.803Z,29.49
2017-08-26T13:15:35.697Z,29.55
2017-08-26T13:18:03.858Z,29.91
2017-08-26T13:20:31.619Z,29.96
2017-08-26T13:22:59.763Z,30.17
2017-08-26T13:25:27.587Z,30.06
2017-08-26T13:27:55.382Z,30.10
2017-08-26T13:30:23.198Z,30.20
2017-08-26T13:32:51.011Z,30.14
2017-08-26T13:35:19.110Z,30.44
2017-08-26T13:37:46.877Z,30.64
2017-08-26T13:40:14.682Z,30.74
2017-08-26T13:42:42.536Z,30.84
2017-08-26T13:45:10.847Z,30.92
2017-08-26T13:47:38.653Z,30.85
2017-08-26T13:50:06.475Z,30.94
2017-08-26T13:52:34.276Z,30.95
2017-08-26T13:55:02.012Z,30.63
2017-08-26T13:57:29.787Z,30.43
2017-08-26T13:59:57.586Z,30.68
2017-08-26T14:02:25.362Z,30.93
2017-08-26T14:04:53.794Z,30.94
2017-08-26T14:07:21.595Z,30.80
2017-08-26T14:09:49.400Z,30.72
2017-08-26T14:12:17.100Z,30.68
2017-08-26T14:14:44.875Z,30.56
2017-08-26T14:17:12.739Z,30.55
2017-08-26T14:19:40.461Z,30.58
2017-08-26T14:22:08.373Z,30.62
2017-08-26T14:24:36.245Z,30.37
2017-08-26T14:27:03.955Z,30.53
2017-08-26T14:29:31.901Z,30.50
2017-08-26T14:31:59.680Z,30.44
2017-08-26T14:34:27.416Z,30.55
2017-08-26T14:36:55.305Z,30.59
2017-08-26T14:39:23.001Z,30.23
2017-08-26T14:41:50.750Z,30.28
2017-08-26T14:44:18.514Z,30.35
2017-08-26T14:46:46.318Z,30.38
2017-08-26T14:49:14.027Z,30.23
2017-08-26T14:51:41.815Z,30.26
2017-08-26T14:54:09.594Z,30.29
2017-08-26T14:56:38.457Z,30.12
2017-08-26T14:59:06.200Z,29.95
2017-08-26T15:01:33.959Z,29.76
2017-08-26T15:04:01.820Z,29.94
2017-08-26T15:06:29.536Z,29.86
2017-08-26T15:08:57.314Z,29.73
2017-08-26T15:11:25.032Z,29.48
2017-08-26T15:13:52.801Z,29.48
2017-08-26T15:16:20.512Z,29.63
2017-08-26T15:18:48.261Z,29.24
2017-08-26T15:21:15.963Z,29.27
2017-08-26T15:23:43.734Z,29.26
2017-08-26T15:26:11.532Z,29.18
2017-08-26T15:28:39.240Z,28.84
2017-08-26T15:31:06.934Z,28.25
2017-08-26T15:33:34.665Z,28.38
2017-08-26T15:36:02.387Z,28.36
2017-08-26T15:38:30.136Z,28.10
2017-08-26T15:40:57.871Z,27.83
2017-08-26T15:43:25.623Z,27.70
2017-08-26T15:45:53.414Z,27.55
2017-08-26T15:48:21.125Z,27.64
2017-08-26T15:50:48.903Z,27.54
2017-08-26T15:53:16.661Z,27.51
2017-08-26T15:55:44.429Z,27.03
2017-08-26T15:58:12.240Z,27.01
2017-08-26T16:00:39.969Z,26.86
2017-08-26T16:03:07.698Z,26.80
2017-08-26T16:05:35.449Z,26.77
2017-08-26T16:08:03.156Z,26.53
2017-08-26T16:10:31.323Z,26.38
2017-08-26T16:12:59.054Z,26.47
2017-08-26T16:15:26.820Z,26.13
2017-08-26T16:17:54.614Z,26.07
2017-08-26T16:20:22.396Z,26.05
2017-08-26T16:22:50.174Z,26.08
2017-08-26T16:25:17.914Z,26.04
2017-08-26T16:27:45.617Z,25.93
2017-08-26T16:30:13.357Z,25.88
2017-08-26T16:32:41.042Z,25.86
2017-08-26T16:35:08.755Z,25.74
2017-08-26T16:37:36.549Z,25.63
2017-08-26T16:40:04.312Z,25.46
2017-08-26T16:42:32.311Z,25.24
2017-08-26T16:45:00.042Z,25.42
2017-08-26T16:47:27.732Z,25.38
2017-08-26T16:49:55.471Z,25.24
2017-08-26T16:52:23.173Z,25.07
2017-08-26T16:54:50.886Z,25.49
2017-08-26T16:57:18.684Z,25.21
2017-08-26T16:59:46.407Z,25.05
2017-08-26T17:02:14.108Z,25.04
2017-08-26T17:04:41.887Z,25.01
2017-08-26T17:07:09.648Z,25.06
2017-08-26T17:09:37.333Z,24.94
2017-08-26T17:12:05.055Z,24.94
2017-08-26T17:14:32.795Z,24.85
2017-08-26T17:17:00.608Z,24.72
2017-08-26T17:19:28.325Z,24.79
2017-08-26T17:21:56.103Z,24.77
2017-08-26T17:24:23.832Z,24.73
2017-08-26T17:26:51.614Z,24.71
2017-08-26T17:29:19.740Z,24.60
2017-08-26T17:31:47.537Z,24.61
2017-08-26T17:34:15.283Z,24.52
2017-08-26T17:36:42.966Z,24.20
2017-08-26T17:39:10.791Z,23.98
2017-08-26T17:41:38.564Z,24.12
2017-08-26T17:44:06.370Z,24.09
2017-08-26T17:46:34.084Z,24.04
2017-08-26T17:49:01.864Z,24.28
2017-08-26T17:51:29.770Z,24.32
2017-08-26T17:53:57.607Z,24.32
2017-08-26T17:56:26.081Z,24.30
2017-08-26T17:58:53.799Z,24.62
2017-08-26T18:01:21.653Z,24.71
2017-08-26T18:03:49.487Z,24.57
2017-08-26T18:06:17.203Z,24.34
2017-08-26T18:08:44.961Z,24.43
2017-08-26T18:11:12.706Z,24.45
2017-08-26T18:13:40.474Z,24.42
2017-08-26T18:16:08.192Z,24.44
2017-08-26T18:18:35.928Z,24.37
2017-08-26T18:21:03.735Z,24.18
2017-08-26T18:23:31.453Z,23.69
2017-08-26T18:25:59.253Z,23.61
2017-08-26T18:28:27.007Z,23.59
2017-08-26T18:30:54.746Z,23.50
2017-08-26T18:33:22.618Z,23.57
2017-08-26T18:35:50.383Z,23.53
2017-08-26T18:38:18.247Z,23.41
2017-08-26T18:40:46.796Z,23.18
2017-08-26T18:43:14.702Z,23.16
2017-08-26T18:45:42.630Z,23.11
2017-08-26T18:48:10.387Z,22.83
2017-08-26T18:50:39.196Z,22.26
2017-08-26T18:53:07.051Z,22.36
2017-08-26T18:55:35.000Z,22.46
2017-08-26T18:58:02.955Z,22.28
2017-08-26T19:00:32.671Z,22.04
2017-08-26T19:03:01.434Z,22.00
2017-08-26T19:05:29.760Z,22.01
2017-08-26T19:07:57.665Z,21.89
2017-08-26T19:10:25.594Z,21.85
2017-08-26T19:12:54.159Z,21.67
2017-08-26T19:15:21.970Z,21.88
2017-08-26T19:17:49.793Z,21.59
2017-08-26T19:20:17.688Z,21.43
2017-08-26T19:22:45.578Z,21.20
2017-08-26T19:25:14.842Z,21.16
2017-08-26T19:27:43.690Z,21.04
2017-08-26T19:30:12.141Z,20.96
2017-08-26T19:32:43.420Z,21.01
2017-08-26T19:35:12.102Z,20.85
2017-08-26T19:37:40.682Z,20.83
2017-08-26T19:40:08.449Z,20.85
2017-08-26T19:42:41.130Z,20.78
2017-08-26T19:45:08.982Z,20.91
2017-08-26T19:47:36.723Z,20.96
2017-08-26T19:50:04.565Z,20.88
2017-08-26T19:52:32.622Z,20.73
2017-08-26T19:55:00.350Z,20.76
2017-08-26T19:57:28.266Z,20.75
2017-08-26T19:59:57.376Z,21.05
2017-08-26T20:02:26.157Z,21.20
2017-08-26T20:04:54.014Z,21.35
2017-08-26T20:07:21.886Z,21.11
2017-08-26T20:09:53.532Z,21.14
2017-08-26T20:12:24.177Z,20.97
2017-08-26T20:14:53.033Z,21.04
2017-08-26T20:17:20.774Z,21.16
2017-08-26T20:19:48.489Z,21.26
2017-08-26T20:22:17.958Z,21.24
2017-08-26T20:24:45.736Z,21.27
2017-08-26T20:27:15.771Z,21.31
2017-08-26T20:29:43.535Z,21.22
2017-08-26T20:32:11.986Z,21.03
2017-08-26T20:34:39.695Z,21.28
2017-08-26T20:37:07.497Z,21.42
2017-08-26T20:39:35.229Z,21.52
2017-08-26T20:42:02.997Z,21.71
2017-08-26T20:44:30.761Z,21.83
2017-08-26T20:46:58.467Z,21.68
2017-08-26T20:49:26.261Z,21.81
2017-08-26T20:51:54.039Z,21.82
2017-08-26T20:54:21.746Z,22.01
2017-08-26T20:56:49.538Z,22.03
2017-08-26T20:59:17.369Z,22.11
2017-08-26T21:01:45.142Z,21.99
2017-08-26T21:04:12.921Z,21.99
2017-08-26T21:06:40.686Z,21.95
2017-08-26T21:09:08.478Z,21.85
2017-08-26T21:11:36.204Z,21.87
2017-08-26T21:14:03.953Z,21.89
2017-08-26T21:16:32.007Z,21.93
2017-08-26T21:18:59.771Z,21.90
2017-08-26T21:21:27.538Z,21.91
2017-08-26T21:23:55.308Z,21.87
2017-08-26T21:26:23.038Z,21.73
2017-08-26T21:28:51.129Z,21.66
2017-08-26T21:31:18.969Z,21.68
2017-08-26T21:33:46.702Z,21.72
2017-08-26T21:36:14.528Z,21.83
2017-08-26T21:38:42.338Z,21.85
2017-08-26T21:41:10.131Z,21.63
2017-08-26T21:43:37.938Z,21.74
2017-08-26T21:46:06.877Z,21.67
2017-08-26T21:48:34.870Z,21.64
2017-08-26T21:51:02.633Z,21.40
2017-08-26T21:53:30.394Z,21.49
2017-08-26T21:55:58.149Z,21.47
2017-08-26T21:58:25.928Z,21.41
2017-08-26T22:00:54.432Z,21.39
2017-08-26T22:03:22.158Z,21.39
2017-08-26T22:05:49.998Z,21.35
2017-08-26T22:08:17.726Z,21.27
2017-08-26T22:10:45.508Z,21.24
2017-08-26T22:13:13.357Z,21.04
2017-08-26T22:15:41.108Z,21.13
2017-08-26T22:18:08.913Z,21.16
2017-08-26T22:20:36.626Z,21.09
2017-08-26T22:23:04.458Z,20.93
2017-08-26T22:25:32.239Z,21.01
2017-08-26T22:27:59.981Z,20.97
2017-08-26T22:30:27.922Z,20.89
2017-08-26T22:32:55.640Z,20.86
2017-08-26T22:35:23.473Z,20.80
2017-08-26T22:37:51.172Z,20.84
2017-08-26T22:40:19.050Z,20.82
2017-08-26T22:42:46.776Z,20.71
2017-08-26T22:45:14.531Z,20.52
2017-08-26T22:47:42.316Z,20.43
2017-08-26T22:50:10.063Z,20.42
2017-08-26T22:52:37.931Z,20.41
2017-08-26T22:55:06.786Z,20.47
2017-08-26T22:57:34.500Z,20.20
2017-08-26T23:00:02.214Z,20.18
2017-08-26T23:02:30.005Z,20.28
2017-08-26T23:04:57.698Z,20.34
2017-08-26T23:07:25.473Z,20.32
2017-08-26T23:09:53.286Z,20.25
2017-08-26T23:12:21.112Z,20.17
2017-08-26T23:14:48.828Z,20.20
2017-08-26T23:17:16.590Z,20.19
2017-08-26T23:19:44.315Z,20.19
2017-08-26T23:22:12.012Z,20.16
2017-08-26T23:24:39.796Z,20.17
2017-08-26T23:27:07.537Z,20.06
2017-08-26T23:29:35.231Z,19.94
2017-08-26T23:32:03.600Z,19.69
2017-08-26T23:34:31.320Z,19.78
2017-08-26T23:36:59.030Z,19.60
2017-08-26T23:39:26.806Z,19.62
2017-08-26T23:41:54.521Z,19.66
2017-08-26T23:44:22.272Z,19.52
2017-08-26T23:46:50.168Z,19.57
2017-08-26T23:49:17.891Z,19.48
2017-08-26T23:51:45.624Z,19.29
2017-08-26T23:54:13.328Z,19.26
2017-08-26T23:56:41.030Z,19.23
2017-08-26T23:59:08.775Z,19.17
